sensor_id;sensor_type;location;lat;lon;timestamp;pressure;altitude;pressure_sealevel;temperature;humidity
72525;BME280;60547;48.502;8.996;2023-04-06T00:01:30;98158.44;;;1.64;66.99
72525;BME280;60547;48.502;8.996;2023-04-06T00:03:55;98171.28;;;1.59;67.60
72525;BME280;60547;48.502;8.996;2023-04-06T00:06:21;98157.44;;;1.49;67.01
72525;BME280;60547;48.502;8.996;2023-04-06T00:08:46;98162.88;;;1.45;67.11
72525;BME280;60547;48.502;8.996;2023-04-06T00:11:12;98164.56;;;1.53;66.78
72525;BME280;60547;48.502;8.996;2023-04-06T00:13:37;98159.16;;;1.60;67.13
72525;BME280;60547;48.502;8.996;2023-04-06T00:16:03;98161.91;;;1.60;66.53
72525;BME280;60547;48.502;8.996;2023-04-06T00:18:31;98157.16;;;1.57;66.78
72525;BME280;60547;48.502;8.996;2023-04-06T00:20:56;98155.94;;;1.55;67.19
72525;BME280;60547;48.502;8.996;2023-04-06T00:23:22;98153.47;;;1.46;67.18
72525;BME280;60547;48.502;8.996;2023-04-06T00:25:47;98146.22;;;1.31;67.07
72525;BME280;60547;48.502;8.996;2023-04-06T00:28:12;98139.84;;;1.23;67.72
72525;BME280;60547;48.502;8.996;2023-04-06T00:30:38;98150.16;;;1.34;67.86
72525;BME280;60547;48.502;8.996;2023-04-06T00:33:03;98151.69;;;1.31;67.15
72525;BME280;60547;48.502;8.996;2023-04-06T00:35:29;98139.09;;;1.26;67.25
72525;BME280;60547;48.502;8.996;2023-04-06T00:37:54;98152.44;;;1.28;67.36
72525;BME280;60547;48.502;8.996;2023-04-06T00:40:20;98145.38;;;1.27;67.52
72525;BME280;60547;48.502;8.996;2023-04-06T00:42:45;98157.13;;;1.27;68.44
72525;BME280;60547;48.502;8.996;2023-04-06T00:45:11;98157.06;;;1.24;68.52
72525;BME280;60547;48.502;8.996;2023-04-06T00:47:37;98148.84;;;1.24;67.51
72525;BME280;60547;48.502;8.996;2023-04-06T00:50:02;98153.13;;;1.21;67.86
72525;BME280;60547;48.502;8.996;2023-04-06T00:52:28;98146.75;;;1.14;67.97
72525;BME280;60547;48.502;8.996;2023-04-06T00:54:53;98142.78;;;1.11;68.04
72525;BME280;60547;48.502;8.996;2023-04-06T00:57:19;98145.47;;;1.08;68.55
72525;BME280;60547;48.502;8.996;2023-04-06T00:59:45;98137.09;;;0.97;67.95
72525;BME280;60547;48.502;8.996;2023-04-06T01:02:11;98137.75;;;0.90;68.48
72525;BME280;60547;48.502;8.996;2023-04-06T01:04:37;98137.75;;;0.90;69.12
72525;BME280;60547;48.502;8.996;2023-04-06T01:07:02;98134.16;;;0.86;68.56
72525;BME280;60547;48.502;8.996;2023-04-06T01:09:28;98138.50;;;0.87;69.22
72525;BME280;60547;48.502;8.996;2023-04-06T01:11:57;98138.84;;;0.86;69.75
72525;BME280;60547;48.502;8.996;2023-04-06T01:14:24;98142.38;;;0.86;69.62
72525;BME280;60547;48.502;8.996;2023-04-06T01:16:50;98132.91;;;0.80;69.62
72525;BME280;60547;48.502;8.996;2023-04-06T01:19:16;98125.00;;;0.75;69.56
72525;BME280;60547;48.502;8.996;2023-04-06T01:21:41;98127.63;;;0.68;70.86
72525;BME280;60547;48.502;8.996;2023-04-06T01:24:07;98130.72;;;0.67;70.25
72525;BME280;60547;48.502;8.996;2023-04-06T01:26:34;98138.19;;;0.70;70.20
72525;BME280;60547;48.502;8.996;2023-04-06T01:29:00;98124.09;;;0.68;70.12
72525;BME280;60547;48.502;8.996;2023-04-06T01:31:27;98129.63;;;0.71;70.44
72525;BME280;60547;48.502;8.996;2023-04-06T01:33:53;98123.41;;;0.74;68.90
72525;BME280;60547;48.502;8.996;2023-04-06T01:36:19;98119.09;;;0.73;69.25
72525;BME280;60547;48.502;8.996;2023-04-06T01:38:45;98111.56;;;0.67;69.93
72525;BME280;60547;48.502;8.996;2023-04-06T01:41:11;98110.69;;;0.62;69.92
72525;BME280;60547;48.502;8.996;2023-04-06T01:43:36;98115.31;;;0.58;70.18
72525;BME280;60547;48.502;8.996;2023-04-06T01:46:02;98119.94;;;0.54;70.05
72525;BME280;60547;48.502;8.996;2023-04-06T01:48:28;98113.56;;;0.47;70.18
72525;BME280;60547;48.502;8.996;2023-04-06T01:50:54;98118.19;;;0.43;70.21
72525;BME280;60547;48.502;8.996;2023-04-06T01:53:19;98111.56;;;0.44;70.42
72525;BME280;60547;48.502;8.996;2023-04-06T01:55:45;98111.25;;;0.49;69.95
72525;BME280;60547;48.502;8.996;2023-04-06T01:58:11;98118.19;;;0.43;70.26
72525;BME280;60547;48.502;8.996;2023-04-06T02:00:36;98118.25;;;0.46;70.87
72525;BME280;60547;48.502;8.996;2023-04-06T02:03:02;98118.97;;;0.43;71.01
72525;BME280;60547;48.502;8.996;2023-04-06T02:05:30;98110.22;;;0.34;70.80
72525;BME280;60547;48.502;8.996;2023-04-06T02:07:56;98111.28;;;0.29;71.14
72525;BME280;60547;48.502;8.996;2023-04-06T02:10:22;98124.13;;;0.25;70.75
72525;BME280;60547;48.502;8.996;2023-04-06T02:12:47;98112.75;;;0.23;71.61
72525;BME280;60547;48.502;8.996;2023-04-06T02:15:13;98113.19;;;0.25;71.46
72525;BME280;60547;48.502;8.996;2023-04-06T02:17:39;98110.00;;;0.23;71.23
72525;BME280;60547;48.502;8.996;2023-04-06T02:20:05;98111.59;;;0.24;71.64
72525;BME280;60547;48.502;8.996;2023-04-06T02:22:31;98107.56;;;0.18;71.92
72525;BME280;60547;48.502;8.996;2023-04-06T02:24:56;98113.47;;;0.20;71.95
72525;BME280;60547;48.502;8.996;2023-04-06T02:27:22;98106.78;;;0.18;71.72
72525;BME280;60547;48.502;8.996;2023-04-06T02:29:48;98108.50;;;0.26;71.25
72525;BME280;60547;48.502;8.996;2023-04-06T02:32:13;98108.84;;;0.24;70.86
72525;BME280;60547;48.502;8.996;2023-04-06T02:34:39;98100.59;;;0.21;71.55
72525;BME280;60547;48.502;8.996;2023-04-06T02:37:04;98117.78;;;0.21;71.33
72525;BME280;60547;48.502;8.996;2023-04-06T02:39:29;98104.78;;;0.15;71.37
72525;BME280;60547;48.502;8.996;2023-04-06T02:41:55;98105.19;;;0.17;71.00
72525;BME280;60547;48.502;8.996;2023-04-06T02:44:22;98101.25;;;0.14;71.27
72525;BME280;60547;48.502;8.996;2023-04-06T02:46:47;98101.31;;;0.18;70.29
72525;BME280;60547;48.502;8.996;2023-04-06T02:49:13;98108.31;;;0.15;70.93
72525;BME280;60547;48.502;8.996;2023-04-06T02:51:38;98106.41;;;0.19;70.84
72525;BME280;60547;48.502;8.996;2023-04-06T02:54:04;98100.81;;;0.12;70.98
72525;BME280;60547;48.502;8.996;2023-04-06T02:56:30;98094.72;;;-0.01;71.31
72525;BME280;60547;48.502;8.996;2023-04-06T02:58:55;98103.28;;;-0.02;71.40
72525;BME280;60547;48.502;8.996;2023-04-06T03:01:21;98101.34;;;-0.02;71.44
72525;BME280;60547;48.502;8.996;2023-04-06T03:03:46;98100.91;;;-0.04;71.77
72525;BME280;60547;48.502;8.996;2023-04-06T03:06:12;98090.69;;;-0.07;72.17
72525;BME280;60547;48.502;8.996;2023-04-06T03:08:37;98102.84;;;-0.04;71.99
72525;BME280;60547;48.502;8.996;2023-04-06T03:11:03;98105.94;;;-0.06;72.11
72525;BME280;60547;48.502;8.996;2023-04-06T03:13:28;98096.03;;;-0.14;71.45
72525;BME280;60547;48.502;8.996;2023-04-06T03:15:54;98101.44;;;-0.17;71.47
72525;BME280;60547;48.502;8.996;2023-04-06T03:18:24;98103.88;;;-0.12;71.56
72525;BME280;60547;48.502;8.996;2023-04-06T03:20:50;98102.94;;;-0.20;71.71
72525;BME280;60547;48.502;8.996;2023-04-06T03:23:16;98104.31;;;-0.29;72.12
72525;BME280;60547;48.502;8.996;2023-04-06T03:25:42;98101.56;;;-0.29;71.98
72525;BME280;60547;48.502;8.996;2023-04-06T03:28:07;98101.56;;;-0.29;72.01
72525;BME280;60547;48.502;8.996;2023-04-06T03:30:34;98101.78;;;-0.38;72.21
72525;BME280;60547;48.502;8.996;2023-04-06T03:32:59;98101.00;;;-0.39;72.36
72525;BME280;60547;48.502;8.996;2023-04-06T03:35:25;98111.94;;;-0.39;72.36
72525;BME280;60547;48.502;8.996;2023-04-06T03:37:51;98116.69;;;-0.36;72.39
72525;BME280;60547;48.502;8.996;2023-04-06T03:40:16;98110.34;;;-0.40;72.50
72525;BME280;60547;48.502;8.996;2023-04-06T03:42:42;98111.94;;;-0.39;72.68
72525;BME280;60547;48.502;8.996;2023-04-06T03:45:08;98108.78;;;-0.41;72.88
72525;BME280;60547;48.502;8.996;2023-04-06T03:47:33;98101.66;;;-0.45;72.08
72525;BME280;60547;48.502;8.996;2023-04-06T03:49:59;98108.63;;;-0.48;71.67
72525;BME280;60547;48.502;8.996;2023-04-06T03:52:24;98111.78;;;-0.46;71.57
72525;BME280;60547;48.502;8.996;2023-04-06T03:54:50;98118.41;;;-0.47;71.74
72525;BME280;60547;48.502;8.996;2023-04-06T03:57:15;98117.97;;;-0.49;71.75
72525;BME280;60547;48.502;8.996;2023-04-06T03:59:41;98124.88;;;-0.55;72.23
72525;BME280;60547;48.502;8.996;2023-04-06T04:02:06;98114.72;;;-0.54;72.54
72525;BME280;60547;48.502;8.996;2023-04-06T04:04:32;98120.81;;;-0.61;71.83
72525;BME280;60547;48.502;8.996;2023-04-06T04:06:57;98119.25;;;-0.62;72.52
72525;BME280;60547;48.502;8.996;2023-04-06T04:09:23;98123.84;;;-0.66;72.83
72525;BME280;60547;48.502;8.996;2023-04-06T04:11:51;98125.41;;;-0.65;72.96
72525;BME280;60547;48.502;8.996;2023-04-06T04:14:17;98129.75;;;-0.64;72.66
72525;BME280;60547;48.502;8.996;2023-04-06T04:16:42;98134.84;;;-0.62;72.29
72525;BME280;60547;48.502;8.996;2023-04-06T04:19:08;98132.03;;;-0.66;72.58
72525;BME280;60547;48.502;8.996;2023-04-06T04:21:45;98139.72;;;-0.72;73.16
72525;BME280;60547;48.502;8.996;2023-04-06T04:24:11;98125.91;;;-0.79;72.81
72525;BME280;60547;48.502;8.996;2023-04-06T04:26:37;98128.13;;;-0.84;73.22
72525;BME280;60547;48.502;8.996;2023-04-06T04:29:03;98130.84;;;-0.84;73.74
72525;BME280;60547;48.502;8.996;2023-04-06T04:31:29;98132.69;;;-0.88;73.12
72525;BME280;60547;48.502;8.996;2023-04-06T04:33:55;98136.38;;;-0.81;73.41
72525;BME280;60547;48.502;8.996;2023-04-06T04:36:20;98135.16;;;-0.83;72.78
72525;BME280;60547;48.502;8.996;2023-04-06T04:38:46;98134.44;;;-0.80;72.86
72525;BME280;60547;48.502;8.996;2023-04-06T04:41:11;98141.78;;;-0.84;73.07
72525;BME280;60547;48.502;8.996;2023-04-06T04:43:36;98142.13;;;-0.86;72.92
72525;BME280;60547;48.502;8.996;2023-04-06T04:46:02;98143.72;;;-0.85;73.51
72525;BME280;60547;48.502;8.996;2023-04-06T04:48:29;98134.28;;;-0.87;73.21
72525;BME280;60547;48.502;8.996;2023-04-06T04:50:54;98142.28;;;-0.79;73.37
72525;BME280;60547;48.502;8.996;2023-04-06T04:53:20;98142.13;;;-0.86;72.91
72525;BME280;60547;48.502;8.996;2023-04-06T04:55:46;98138.88;;;-0.91;72.80
72525;BME280;60547;48.502;8.996;2023-04-06T04:58:11;98138.78;;;-0.95;73.28
72525;BME280;60547;48.502;8.996;2023-04-06T05:00:42;98147.22;;;-0.84;73.12
72525;BME280;60547;48.502;8.996;2023-04-06T05:03:08;98146.97;;;-0.79;72.00
72525;BME280;60547;48.502;8.996;2023-04-06T05:05:33;98153.28;;;-0.75;72.07
72525;BME280;60547;48.502;8.996;2023-04-06T05:07:59;98160.88;;;-0.84;72.51
72525;BME280;60547;48.502;8.996;2023-04-06T05:10:24;98158.16;;;-0.84;72.70
72525;BME280;60547;48.502;8.996;2023-04-06T05:12:50;98149.53;;;-0.86;73.46
72525;BME280;60547;48.502;8.996;2023-04-06T05:15:16;98160.09;;;-0.85;73.74
72525;BME280;60547;48.502;8.996;2023-04-06T05:17:41;98150.50;;;-0.94;73.44
72525;BME280;60547;48.502;8.996;2023-04-06T05:20:07;98155.25;;;-0.91;73.43
72525;BME280;60547;48.502;8.996;2023-04-06T05:22:33;98146.38;;;-1.04;74.29
72525;BME280;60547;48.502;8.996;2023-04-06T05:24:58;98153.59;;;-0.96;74.54
72525;BME280;60547;48.502;8.996;2023-04-06T05:27:24;98164.59;;;-0.92;74.77
72525;BME280;60547;48.502;8.996;2023-04-06T05:29:50;98167.16;;;-0.84;74.69
72525;BME280;60547;48.502;8.996;2023-04-06T05:32:15;98167.06;;;-0.87;74.28
72525;BME280;60547;48.502;8.996;2023-04-06T05:34:41;98176.22;;;-0.80;73.96
72525;BME280;60547;48.502;8.996;2023-04-06T05:37:06;98175.22;;;-0.72;73.88
72525;BME280;60547;48.502;8.996;2023-04-06T05:39:32;98168.63;;;-0.71;73.45
72525;BME280;60547;48.502;8.996;2023-04-06T05:41:57;98171.59;;;-0.60;72.97
72525;BME280;60547;48.502;8.996;2023-04-06T05:44:23;98166.13;;;-0.60;72.51
72525;BME280;60547;48.502;8.996;2023-04-06T05:46:48;98176.66;;;-0.43;72.73
72525;BME280;60547;48.502;8.996;2023-04-06T05:49:14;98167.03;;;-0.37;72.25
72525;BME280;60547;48.502;8.996;2023-04-06T05:51:59;98168.97;;;-0.37;72.56
72525;BME280;60547;48.502;8.996;2023-04-06T05:54:26;98179.97;;;-0.34;72.58
72525;BME280;60547;48.502;8.996;2023-04-06T05:56:52;98176.09;;;-0.32;73.09
72525;BME280;60547;48.502;8.996;2023-04-06T05:59:17;98182.59;;;-0.21;72.59
72525;BME280;60547;48.502;8.996;2023-04-06T06:01:43;98177.69;;;-0.12;72.32
72525;BME280;60547;48.502;8.996;2023-04-06T06:04:08;98181.44;;;-0.01;71.50
72525;BME280;60547;48.502;8.996;2023-04-06T06:06:34;98185.41;;;0.21;71.20
72525;BME280;60547;48.502;8.996;2023-04-06T06:09:00;98190.31;;;0.54;70.19
72525;BME280;60547;48.502;8.996;2023-04-06T06:11:26;98191.88;;;0.74;69.41
72525;BME280;60547;48.502;8.996;2023-04-06T06:13:52;98190.41;;;1.03;68.34
72525;BME280;60547;48.502;8.996;2023-04-06T06:16:18;98195.44;;;1.24;68.20
72525;BME280;60547;48.502;8.996;2023-04-06T06:18:44;98198.09;;;1.43;67.10
72525;BME280;60547;48.502;8.996;2023-04-06T06:21:10;98181.84;;;1.57;66.49
72525;BME280;60547;48.502;8.996;2023-04-06T06:23:38;98186.59;;;1.60;66.24
72525;BME280;60547;48.502;8.996;2023-04-06T06:26:03;98191.44;;;1.71;66.22
72525;BME280;60547;48.502;8.996;2023-04-06T06:28:29;98190.00;;;1.80;66.11
72525;BME280;60547;48.502;8.996;2023-04-06T06:30:55;98185.41;;;1.88;65.61
72525;BME280;60547;48.502;8.996;2023-04-06T06:33:21;98177.16;;;1.88;65.44
72525;BME280;60547;48.502;8.996;2023-04-06T06:35:46;98188.66;;;1.97;65.70
72525;BME280;60547;48.502;8.996;2023-04-06T06:38:12;98178.84;;;1.96;65.56
72525;BME280;60547;48.502;8.996;2023-04-06T06:40:37;98180.09;;;2.02;66.48
72525;BME280;60547;48.502;8.996;2023-04-06T06:43:03;98180.94;;;2.06;66.10
72525;BME280;60547;48.502;8.996;2023-04-06T06:45:29;98183.81;;;2.17;65.91
72525;BME280;60547;48.502;8.996;2023-04-06T06:47:54;98178.03;;;2.25;65.50
72525;BME280;60547;48.502;8.996;2023-04-06T06:50:20;98184.44;;;2.37;64.93
72525;BME280;60547;48.502;8.996;2023-04-06T06:52:46;98182.50;;;2.41;65.50
72525;BME280;60547;48.502;8.996;2023-04-06T06:55:11;98183.00;;;2.50;64.91
72525;BME280;60547;48.502;8.996;2023-04-06T06:57:37;98180.38;;;2.61;64.85
72525;BME280;60547;48.502;8.996;2023-04-06T07:00:04;98188.31;;;2.69;64.23
72525;BME280;60547;48.502;8.996;2023-04-06T07:02:30;98184.88;;;2.79;64.05
72525;BME280;60547;48.502;8.996;2023-04-06T07:04:56;98185.72;;;2.87;63.76
72525;BME280;60547;48.502;8.996;2023-04-06T07:07:23;98182.31;;;3.01;64.31
72525;BME280;60547;48.502;8.996;2023-04-06T07:09:48;98192.19;;;3.09;63.61
72525;BME280;60547;48.502;8.996;2023-04-06T07:12:14;98190.28;;;3.13;62.49
72525;BME280;60547;48.502;8.996;2023-04-06T07:14:41;98193.53;;;3.29;62.35
72525;BME280;60547;48.502;8.996;2023-04-06T07:17:07;98188.91;;;3.40;62.41
72525;BME280;60547;48.502;8.996;2023-04-06T07:19:32;98178.38;;;3.49;61.92
72525;BME280;60547;48.502;8.996;2023-04-06T07:21:58;98180.22;;;3.35;62.08
72525;BME280;60547;48.502;8.996;2023-04-06T07:24:23;98183.09;;;3.52;62.09
72525;BME280;60547;48.502;8.996;2023-04-06T07:26:49;98184.41;;;3.73;61.18
72525;BME280;60547;48.502;8.996;2023-04-06T07:29:14;98182.50;;;3.84;61.29
72525;BME280;60547;48.502;8.996;2023-04-06T07:31:39;98180.16;;;3.86;61.89
72525;BME280;60547;48.502;8.996;2023-04-06T07:34:05;98179.28;;;3.68;61.69
72525;BME280;60547;48.502;8.996;2023-04-06T07:36:31;98178.66;;;3.96;61.59
72525;BME280;60547;48.502;8.996;2023-04-06T07:38:56;98169.28;;;4.11;60.68
72525;BME280;60547;48.502;8.996;2023-04-06T07:41:21;98179.22;;;4.44;60.67
72525;BME280;60547;48.502;8.996;2023-04-06T07:43:47;98168.97;;;4.37;61.29
72525;BME280;60547;48.502;8.996;2023-04-06T07:46:13;98171.81;;;4.66;60.18
72525;BME280;60547;48.502;8.996;2023-04-06T07:48:38;98176.97;;;4.81;59.38
72525;BME280;60547;48.502;8.996;2023-04-06T07:51:04;98174.63;;;4.98;57.48
72525;BME280;60547;48.502;8.996;2023-04-06T07:53:32;98168.72;;;5.06;57.11
72525;BME280;60547;48.502;8.996;2023-04-06T07:56:00;98176.16;;;4.84;58.03
72525;BME280;60547;48.502;8.996;2023-04-06T07:58:25;98181.28;;;4.79;58.22
72525;BME280;60547;48.502;8.996;2023-04-06T08:00:51;98178.53;;;4.82;57.76
72525;BME280;60547;48.502;8.996;2023-04-06T08:03:17;98182.47;;;4.78;57.60
72525;BME280;60547;48.502;8.996;2023-04-06T08:05:42;98170.63;;;4.67;57.67
72525;BME280;60547;48.502;8.996;2023-04-06T08:08:08;98178.13;;;4.70;57.53
72525;BME280;60547;48.502;8.996;2023-04-06T08:10:33;98173.41;;;4.84;58.58
72525;BME280;60547;48.502;8.996;2023-04-06T08:13:00;98164.69;;;4.54;59.74
72525;BME280;60547;48.502;8.996;2023-04-06T08:15:25;98161.56;;;4.66;59.77
72525;BME280;60547;48.502;8.996;2023-04-06T08:17:51;98170.69;;;5.06;59.38
72525;BME280;60547;48.502;8.996;2023-04-06T08:20:17;98162.41;;;5.13;58.19
72525;BME280;60547;48.502;8.996;2023-04-06T08:22:42;98153.75;;;5.22;55.83
72525;BME280;60547;48.502;8.996;2023-04-06T08:25:08;98158.84;;;5.48;56.35
72525;BME280;60547;48.502;8.996;2023-04-06T08:27:33;98159.22;;;5.46;55.68
72525;BME280;60547;48.502;8.996;2023-04-06T08:29:59;98154.44;;;5.79;55.58
72525;BME280;60547;48.502;8.996;2023-04-06T08:32:25;98152.84;;;5.81;54.60
72525;BME280;60547;48.502;8.996;2023-04-06T08:34:54;98161.91;;;5.96;54.33
72525;BME280;60547;48.502;8.996;2023-04-06T08:37:20;98147.28;;;6.03;52.61
72525;BME280;60547;48.502;8.996;2023-04-06T08:39:46;98149.19;;;6.24;49.17
72525;BME280;60547;48.502;8.996;2023-04-06T08:42:20;98142.13;;;6.15;48.80
72525;BME280;60547;48.502;8.996;2023-04-06T08:44:48;98146.84;;;6.15;48.62
72525;BME280;60547;48.502;8.996;2023-04-06T08:47:14;98142.78;;;6.41;49.20
72525;BME280;60547;48.502;8.996;2023-04-06T08:49:40;98136.78;;;6.57;49.46
72525;BME280;60547;48.502;8.996;2023-04-06T08:52:07;98131.28;;;6.53;48.65
72525;BME280;60547;48.502;8.996;2023-04-06T08:54:34;98139.06;;;6.72;49.91
72525;BME280;60547;48.502;8.996;2023-04-06T08:56:59;98139.44;;;6.74;48.91
72525;BME280;60547;48.502;8.996;2023-04-06T08:59:26;98121.88;;;6.40;47.49
72525;BME280;60547;48.502;8.996;2023-04-06T09:01:54;98129.59;;;6.70;48.03
72525;BME280;60547;48.502;8.996;2023-04-06T09:04:20;98128.44;;;7.16;48.44
72525;BME280;60547;48.502;8.996;2023-04-06T09:06:46;98117.22;;;7.33;47.03
72525;BME280;60547;48.502;8.996;2023-04-06T09:09:12;98114.84;;;7.35;47.54
72525;BME280;60547;48.502;8.996;2023-04-06T09:11:48;98119.34;;;7.60;46.16
72525;BME280;60547;48.502;8.996;2023-04-06T09:14:15;98126.53;;;7.54;47.09
72525;BME280;60547;48.502;8.996;2023-04-06T09:16:43;98119.91;;;7.82;46.76
72525;BME280;60547;48.502;8.996;2023-04-06T09:19:09;98125.59;;;8.01;45.92
72525;BME280;60547;48.502;8.996;2023-04-06T09:21:35;98111.78;;;7.98;45.58
72525;BME280;60547;48.502;8.996;2023-04-06T09:24:02;98124.88;;;8.28;47.06
72525;BME280;60547;48.502;8.996;2023-04-06T09:26:28;98122.19;;;8.21;46.63
72525;BME280;60547;48.502;8.996;2023-04-06T09:28:55;98121.75;;;8.26;46.19
72525;BME280;60547;48.502;8.996;2023-04-06T09:31:23;98114.63;;;8.25;45.93
72525;BME280;60547;48.502;8.996;2023-04-06T09:33:48;98108.47;;;8.71;45.48
72525;BME280;60547;48.502;8.996;2023-04-06T09:36:18;98117.66;;;8.91;45.26
72525;BME280;60547;48.502;8.996;2023-04-06T09:38:55;98107.91;;;9.06;43.27
72525;BME280;60547;48.502;8.996;2023-04-06T09:41:32;98101.03;;;8.91;43.06
72525;BME280;60547;48.502;8.996;2023-04-06T09:44:05;98105.75;;;9.18;41.35
72525;BME280;60547;48.502;8.996;2023-04-06T09:46:42;98105.22;;;9.26;39.98
72525;BME280;60547;48.502;8.996;2023-04-06T09:49:09;98106.28;;;9.56;40.52
72525;BME280;60547;48.502;8.996;2023-04-06T09:51:53;98100.50;;;9.47;37.82
72525;BME280;60547;48.502;8.996;2023-04-06T09:54:21;98108.78;;;9.70;38.65
72525;BME280;60547;48.502;8.996;2023-04-06T09:56:51;98093.41;;;9.85;39.10
72525;BME280;60547;48.502;8.996;2023-04-06T10:00:01;98098.31;;;9.97;37.65
72525;BME280;60547;48.502;8.996;2023-04-06T10:05:09;98085.28;;;10.34;36.02
72525;BME280;60547;48.502;8.996;2023-04-06T10:07:39;98082.19;;;10.48;36.84
72525;BME280;60547;48.502;8.996;2023-04-06T10:10:06;98073.75;;;10.52;35.96
72525;BME280;60547;48.502;8.996;2023-04-06T10:12:33;98081.00;;;10.65;33.75
72525;BME280;60547;48.502;8.996;2023-04-06T10:14:59;98070.53;;;10.53;34.47
72525;BME280;60547;48.502;8.996;2023-04-06T10:17:24;98077.69;;;10.54;33.42
72525;BME280;60547;48.502;8.996;2023-04-06T10:19:55;98068.94;;;10.36;34.17
72525;BME280;60547;48.502;8.996;2023-04-06T10:25:04;98071.09;;;10.64;34.28
72525;BME280;60547;48.502;8.996;2023-04-06T10:27:30;98075.34;;;10.69;34.34
72525;BME280;60547;48.502;8.996;2023-04-06T10:30:05;98074.22;;;10.66;34.33
72525;BME280;60547;48.502;8.996;2023-04-06T10:32:38;98072.50;;;11.21;36.97
72525;BME280;60547;48.502;8.996;2023-04-06T10:35:07;98077.50;;;11.43;34.98
72525;BME280;60547;48.502;8.996;2023-04-06T10:37:46;98070.91;;;11.37;34.30
72525;BME280;60547;48.502;8.996;2023-04-06T10:40:23;98070.41;;;12.00;33.74
72525;BME280;60547;48.502;8.996;2023-04-06T10:42:51;98071.84;;;11.91;32.84
72525;BME280;60547;48.502;8.996;2023-04-06T10:45:24;98061.56;;;12.30;31.58
72525;BME280;60547;48.502;8.996;2023-04-06T10:47:52;98064.81;;;12.54;31.92
72525;BME280;60547;48.502;8.996;2023-04-06T10:50:18;98059.78;;;12.61;33.00
72525;BME280;60547;48.502;8.996;2023-04-06T10:52:45;98055.31;;;13.02;30.71
72525;BME280;60547;48.502;8.996;2023-04-06T10:55:16;98053.09;;;12.72;30.11
72525;BME280;60547;48.502;8.996;2023-04-06T10:57:42;98050.97;;;12.38;31.20
72525;BME280;60547;48.502;8.996;2023-04-06T11:00:08;98046.78;;;12.17;29.38
72525;BME280;60547;48.502;8.996;2023-04-06T11:02:35;98044.69;;;12.21;29.59
72525;BME280;60547;48.502;8.996;2023-04-06T11:05:03;98042.72;;;11.92;28.77
72525;BME280;60547;48.502;8.996;2023-04-06T11:07:28;98046.50;;;12.53;29.43
72525;BME280;60547;48.502;8.996;2023-04-06T11:09:56;98045.03;;;12.99;28.42
72525;BME280;60547;48.502;8.996;2023-04-06T11:12:26;98051.38;;;13.25;29.28
72525;BME280;60547;48.502;8.996;2023-04-06T11:14:56;98039.28;;;13.15;29.33
72525;BME280;60547;48.502;8.996;2023-04-06T11:17:30;98049.94;;;13.20;30.36
72525;BME280;60547;48.502;8.996;2023-04-06T11:19:56;98051.06;;;13.79;27.83
72525;BME280;60547;48.502;8.996;2023-04-06T11:22:23;98042.22;;;12.99;29.95
72525;BME280;60547;48.502;8.996;2023-04-06T11:24:48;98043.25;;;13.52;28.80
72525;BME280;60547;48.502;8.996;2023-04-06T11:27:14;98042.28;;;13.34;29.00
72525;BME280;60547;48.502;8.996;2023-04-06T11:29:41;98039.56;;;13.77;26.39
72525;BME280;60547;48.502;8.996;2023-04-06T11:32:07;98029.22;;;13.87;28.42
72525;BME280;60547;48.502;8.996;2023-04-06T11:34:36;98035.66;;;13.97;26.88
72525;BME280;60547;48.502;8.996;2023-04-06T11:37:04;98030.78;;;14.41;26.84
72525;BME280;60547;48.502;8.996;2023-04-06T11:39:39;98031.34;;;14.58;26.33
72525;BME280;60547;48.502;8.996;2023-04-06T11:42:08;98019.22;;;14.61;25.08
72525;BME280;60547;48.502;8.996;2023-04-06T11:44:44;98015.59;;;14.51;25.00
72525;BME280;60547;48.502;8.996;2023-04-06T11:47:14;98009.53;;;15.02;24.92
72525;BME280;60547;48.502;8.996;2023-04-06T11:49:42;98020.50;;;15.36;24.46
72525;BME280;60547;48.502;8.996;2023-04-06T11:52:24;98018.31;;;15.31;24.87
72525;BME280;60547;48.502;8.996;2023-04-06T11:54:52;98015.22;;;15.57;25.49
72525;BME280;60547;48.502;8.996;2023-04-06T11:57:21;98005.72;;;15.72;24.76
72525;BME280;60547;48.502;8.996;2023-04-06T11:59:49;97998.53;;;15.53;24.84
72525;BME280;60547;48.502;8.996;2023-04-06T12:02:15;98004.19;;;14.76;25.74
72525;BME280;60547;48.502;8.996;2023-04-06T12:04:40;97992.44;;;15.27;25.79
72525;BME280;60547;48.502;8.996;2023-04-06T12:07:06;97998.28;;;14.83;23.86
72525;BME280;60547;48.502;8.996;2023-04-06T12:09:31;97990.44;;;15.37;25.47
72525;BME280;60547;48.502;8.996;2023-04-06T12:11:57;97988.25;;;15.32;26.38
72525;BME280;60547;48.502;8.996;2023-04-06T12:14:23;97996.22;;;14.66;24.62
72525;BME280;60547;48.502;8.996;2023-04-06T12:16:48;97990.25;;;14.54;24.35
72525;BME280;60547;48.502;8.996;2023-04-06T12:19:14;97989.88;;;14.74;24.22
72525;BME280;60547;48.502;8.996;2023-04-06T12:21:40;97984.88;;;14.69;25.72
72525;BME280;60547;48.502;8.996;2023-04-06T12:24:06;97995.94;;;14.82;24.30
72525;BME280;60547;48.502;8.996;2023-04-06T12:26:32;97976.72;;;15.30;23.20
72525;BME280;60547;48.502;8.996;2023-04-06T12:28:58;97978.66;;;14.74;24.49
72525;BME280;60547;48.502;8.996;2023-04-06T12:31:32;97981.41;;;15.51;24.39
72525;BME280;60547;48.502;8.996;2023-04-06T12:33:59;97983.88;;;15.95;21.85
72525;BME280;60547;48.502;8.996;2023-04-06T12:36:25;97977.56;;;16.18;21.93
72525;BME280;60547;48.502;8.996;2023-04-06T12:38:50;97972.47;;;16.07;23.25
72525;BME280;60547;48.502;8.996;2023-04-06T12:41:17;97964.28;;;16.28;21.63
72525;BME280;60547;48.502;8.996;2023-04-06T12:43:43;97966.72;;;16.44;22.35
72525;BME280;60547;48.502;8.996;2023-04-06T12:46:11;97971.69;;;15.98;24.66
72525;BME280;60547;48.502;8.996;2023-04-06T12:48:37;97965.72;;;16.23;21.94
72525;BME280;60547;48.502;8.996;2023-04-06T12:51:04;97961.91;;;15.11;21.47
72525;BME280;60547;48.502;8.996;2023-04-06T12:53:31;97970.03;;;15.82;21.94
72525;BME280;60547;48.502;8.996;2023-04-06T12:55:57;97965.09;;;16.19;22.32
72525;BME280;60547;48.502;8.996;2023-04-06T12:58:24;97962.78;;;16.51;20.80
72525;BME280;60547;48.502;8.996;2023-04-06T13:00:52;97970.91;;;16.48;20.69
72525;BME280;60547;48.502;8.996;2023-04-06T13:03:19;97959.41;;;15.86;22.84
72525;BME280;60547;48.502;8.996;2023-04-06T13:05:46;97960.56;;;16.22;20.47
72525;BME280;60547;48.502;8.996;2023-04-06T13:08:13;97952.75;;;16.59;21.31